createdAt,value
2019-01-24T00:00:57.356Z,93049.73
2019-01-24T00:03:27.089Z,93056.16
2019-01-24T00:05:56.803Z,93044.91
2019-01-24T00:08:26.439Z,93042.25
2019-01-24T00:10:56.121Z,93036.09
2019-01-24T00:13:25.759Z,93053.55
2019-01-24T00:15:55.532Z,93045.03
2019-01-24T00:18:25.216Z,93051.70
2019-01-24T00:20:54.960Z,93037.17
2019-01-24T00:23:24.676Z,93029.69
2019-01-24T00:25:55.230Z,93035.03
2019-01-24T00:28:25.060Z,93019.98
2019-01-24T00:30:54.723Z,93003.08
2019-01-24T00:33:24.500Z,93000.66
2019-01-24T00:35:54.052Z,93002.00
2019-01-24T00:38:23.668Z,92992.89
2019-01-24T00:40:53.382Z,92987.23
2019-01-24T00:43:22.997Z,92999.05
2019-01-24T00:45:52.696Z,93013.78
2019-01-24T00:48:22.383Z,93006.80
2019-01-24T00:50:52.324Z,92982.39
2019-01-24T00:53:21.932Z,92976.25
2019-01-24T00:55:51.635Z,92980.82
2019-01-24T00:58:21.444Z,92988.05
2019-01-24T01:00:51.261Z,92990.48
2019-01-24T01:03:21.017Z,92993.45
2019-01-24T01:05:51.007Z,92999.34
2019-01-24T01:08:20.608Z,92985.41
2019-01-24T01:10:50.515Z,92985.07
2019-01-24T01:13:20.136Z,92989.14
2019-01-24T01:15:49.840Z,92985.87
2019-01-24T01:18:19.541Z,92979.46
2019-01-24T01:20:49.257Z,92973.77
2019-01-24T01:23:18.967Z,92976.21
2019-01-24T01:25:48.601Z,92974.61
2019-01-24T01:28:18.275Z,92970.07
2019-01-24T01:30:47.916Z,92956.66
2019-01-24T01:33:17.596Z,92958.00
2019-01-24T01:35:47.239Z,92951.00
2019-01-24T01:38:17.534Z,92946.42
2019-01-24T01:40:47.069Z,92938.95
2019-01-24T01:43:16.756Z,92938.95
2019-01-24T01:45:46.371Z,92932.78
2019-01-24T01:48:16.087Z,92943.17
2019-01-24T01:50:45.693Z,92946.41
2019-01-24T01:53:15.398Z,92949.90
2019-01-24T01:55:45.104Z,92951.56
2019-01-24T01:58:14.730Z,92941.85
2019-01-24T02:00:44.414Z,92944.04
2019-01-24T02:03:14.140Z,92949.15
2019-01-24T02:05:43.840Z,92946.42
2019-01-24T02:08:13.475Z,92948.34
2019-01-24T02:10:43.155Z,92951.79
2019-01-24T02:13:12.800Z,92945.34
2019-01-24T02:15:42.478Z,92949.11
2019-01-24T02:18:12.201Z,92955.25
2019-01-24T02:20:41.858Z,92952.84
2019-01-24T02:23:11.516Z,92945.61
2019-01-24T02:25:41.177Z,92939.67
2019-01-24T02:28:10.927Z,92945.03
2019-01-24T02:30:40.566Z,92943.49
2019-01-24T02:33:10.356Z,92951.22
2019-01-24T02:35:39.976Z,92948.61
2019-01-24T02:38:09.686Z,92945.63
2019-01-24T02:40:39.387Z,92950.77
2019-01-24T02:43:09.213Z,92951.56
2019-01-24T02:45:38.930Z,92946.95
2019-01-24T02:48:08.640Z,92949.88
2019-01-24T02:50:38.328Z,92957.43
2019-01-24T02:53:07.978Z,92954.77
2019-01-24T02:55:37.655Z,92948.61
2019-01-24T02:58:07.319Z,92951.88
2019-01-24T03:00:36.976Z,92957.74
2019-01-24T03:03:06.606Z,92953.13
2019-01-24T03:05:36.299Z,92953.98
2019-01-24T03:08:06.001Z,92948.91
2019-01-24T03:10:35.779Z,92946.47
2019-01-24T03:13:05.702Z,92943.77
2019-01-24T03:15:35.551Z,92936.27
2019-01-24T03:18:06.307Z,92926.63
2019-01-24T03:20:35.891Z,92922.88
2019-01-24T03:23:05.632Z,92912.40
2019-01-24T03:25:35.423Z,92904.89
2019-01-24T03:28:05.030Z,92911.59
2019-01-24T03:30:34.757Z,92911.13
2019-01-24T03:33:04.648Z,92915.38
2019-01-24T03:35:34.318Z,92914.33
2019-01-24T03:38:04.060Z,92910.56
2019-01-24T03:40:33.677Z,92908.38
2019-01-24T03:43:03.298Z,92900.87
2019-01-24T03:45:32.997Z,92901.44
2019-01-24T03:48:02.734Z,92902.73
2019-01-24T03:50:32.432Z,92899.80
2019-01-24T03:53:02.043Z,92902.48
2019-01-24T03:55:31.735Z,92896.25
2019-01-24T03:58:01.449Z,92885.83
2019-01-24T04:00:31.175Z,92884.77
2019-01-24T04:03:00.871Z,92879.98
2019-01-24T04:05:30.537Z,92884.53
2019-01-24T04:08:00.184Z,92886.41
2019-01-24T04:10:29.723Z,92888.77
2019-01-24T04:12:59.413Z,92894.96
2019-01-24T04:15:29.101Z,92893.84
2019-01-24T04:17:58.836Z,92893.55
2019-01-24T04:20:28.541Z,92900.00
2019-01-24T04:22:58.196Z,92907.03
2019-01-24T04:25:27.851Z,92899.48
2019-01-24T04:27:57.572Z,92899.45
2019-01-24T04:30:27.324Z,92898.94
2019-01-24T04:32:56.901Z,92900.55
2019-01-24T04:35:26.596Z,92899.43
2019-01-24T04:37:56.260Z,92892.53
2019-01-24T04:40:26.249Z,92897.64
2019-01-24T04:42:55.847Z,92898.94
2019-01-24T04:45:25.554Z,92908.08
2019-01-24T04:47:55.162Z,92903.19
2019-01-24T04:50:24.968Z,92907.25
2019-01-24T04:52:54.684Z,92905.89
2019-01-24T04:55:24.419Z,92914.76
2019-01-24T04:57:55.037Z,92917.69
2019-01-24T05:00:26.878Z,92920.37
2019-01-24T05:02:56.586Z,92920.98
2019-01-24T05:05:28.057Z,92921.52
2019-01-24T05:07:57.765Z,92930.33
2019-01-24T05:10:27.384Z,92937.81
2019-01-24T05:12:57.089Z,92923.88
2019-01-24T05:15:26.707Z,92934.31
2019-01-24T05:17:56.401Z,92937.03
2019-01-24T05:20:26.180Z,92938.66
2019-01-24T05:22:56.168Z,92937.76
2019-01-24T05:25:25.748Z,92936.98
2019-01-24T05:27:55.554Z,92930.03
2019-01-24T05:30:27.145Z,92932.44
2019-01-24T05:32:56.818Z,92926.30
2019-01-24T05:35:26.975Z,92931.42
2019-01-24T05:37:56.644Z,92931.38
2019-01-24T05:40:26.347Z,92931.38
2019-01-24T05:42:56.074Z,92927.63
2019-01-24T05:45:26.325Z,92924.96
2019-01-24T05:47:56.378Z,92931.12
2019-01-24T05:50:26.348Z,92950.70
2019-01-24T05:52:55.951Z,92949.91
2019-01-24T05:55:25.753Z,92952.16
2019-01-24T05:57:55.367Z,92951.52
2019-01-24T06:00:43.847Z,92949.98
2019-01-24T06:03:13.602Z,92946.80
2019-01-24T06:05:43.423Z,92948.95
2019-01-24T06:08:13.252Z,92951.63
2019-01-24T06:10:43.149Z,92950.05
2019-01-24T06:13:12.862Z,92950.14
2019-01-24T06:15:42.835Z,92951.99
2019-01-24T06:18:12.515Z,92942.58
2019-01-24T06:20:42.330Z,92946.22
2019-01-24T06:23:12.032Z,92952.09
2019-01-24T06:25:41.615Z,92954.98
2019-01-24T06:28:11.247Z,92951.52
2019-01-24T06:30:40.760Z,92949.34
2019-01-24T06:33:10.175Z,92959.27
2019-01-24T06:35:39.860Z,92963.30
2019-01-24T06:38:09.482Z,92968.89
2019-01-24T06:40:39.148Z,92968.83
2019-01-24T06:43:08.695Z,92966.92
2019-01-24T06:45:38.394Z,92974.41
2019-01-24T06:48:08.126Z,92977.34
2019-01-24T06:50:37.921Z,92981.34
2019-01-24T06:53:07.580Z,92978.92
2019-01-24T06:55:37.248Z,92987.23
2019-01-24T06:58:06.888Z,92997.70
2019-01-24T07:00:36.587Z,93000.39
2019-01-24T07:03:06.402Z,92991.78
2019-01-24T07:05:36.093Z,92997.14
2019-01-24T07:08:05.726Z,92999.05
2019-01-24T07:10:35.702Z,93005.19
2019-01-24T07:13:05.347Z,93005.17
2019-01-24T07:15:35.023Z,93003.27
2019-01-24T07:18:04.637Z,93006.75
2019-01-24T07:20:34.125Z,93000.31
2019-01-24T07:23:03.854Z,93010.52
2019-01-24T07:25:34.914Z,93009.11
2019-01-24T07:28:04.608Z,93007.48
2019-01-24T07:30:34.312Z,93002.38
2019-01-24T07:33:04.034Z,92999.48
2019-01-24T07:35:33.759Z,92995.10
2019-01-24T07:38:03.383Z,92994.05
2019-01-24T07:40:33.150Z,93001.31
2019-01-24T07:43:02.793Z,93002.09
2019-01-24T07:45:37.724Z,93005.60
2019-01-24T07:48:07.749Z,93005.35
2019-01-24T07:50:37.358Z,93000.47
2019-01-24T07:53:07.945Z,92998.31
2019-01-24T07:55:37.874Z,93003.92
2019-01-24T07:58:07.925Z,93015.77
2019-01-24T08:00:37.600Z,93017.35
2019-01-24T08:03:07.258Z,93013.59
2019-01-24T08:05:37.962Z,93021.38
2019-01-24T08:08:07.664Z,93017.63
2019-01-24T08:10:37.296Z,93024.57
2019-01-24T08:13:07.441Z,93014.38
2019-01-24T08:15:37.130Z,93031.52
2019-01-24T08:18:07.200Z,93024.02
2019-01-24T08:20:36.965Z,93023.48
2019-01-24T08:23:06.577Z,93021.57
2019-01-24T08:25:36.167Z,93020.23
2019-01-24T08:28:05.860Z,93025.89
2019-01-24T08:30:35.595Z,93026.69
2019-01-24T08:33:05.283Z,93032.86
2019-01-24T08:35:34.900Z,93040.64
2019-01-24T08:38:04.702Z,93036.08
2019-01-24T08:40:34.409Z,93038.76
2019-01-24T08:43:04.130Z,93042.52
2019-01-24T08:45:33.835Z,93043.88
2019-01-24T08:48:03.573Z,93050.03
2019-01-24T08:50:33.273Z,93059.41
2019-01-24T08:53:02.895Z,93064.48
2019-01-24T08:55:43.067Z,93066.66
2019-01-24T08:58:12.877Z,93071.24
2019-01-24T09:00:42.649Z,93068.81
2019-01-24T09:03:12.329Z,93073.64
2019-01-24T09:05:42.067Z,93076.61
2019-01-24T09:08:11.780Z,93080.31
2019-01-24T09:10:41.496Z,93084.61
2019-01-24T09:13:11.201Z,93090.25
2019-01-24T09:15:41.019Z,93086.48
2019-01-24T09:18:10.951Z,93087.84
2019-01-24T09:20:40.643Z,93083.27
2019-01-24T09:23:10.391Z,93076.31
2019-01-24T09:25:40.060Z,93089.47
2019-01-24T09:28:14.775Z,93088.10
2019-01-24T09:30:41.226Z,93087.84
2019-01-24T09:33:10.946Z,93083.56
2019-01-24T09:35:40.640Z,93084.09
2019-01-24T09:38:10.357Z,93091.28
2019-01-24T09:40:39.978Z,93088.91
2019-01-24T09:43:09.713Z,93091.86
2019-01-24T09:45:39.314Z,93096.42
2019-01-24T09:48:09.005Z,93100.17
2019-01-24T09:50:38.623Z,93092.70
2019-01-24T09:53:08.372Z,93087.57
2019-01-24T09:55:38.025Z,93086.23
2019-01-24T09:58:07.751Z,93081.66
2019-01-24T10:00:38.209Z,93070.40
2019-01-24T10:03:08.447Z,93068.25
2019-01-24T10:05:38.097Z,93070.66
2019-01-24T10:08:08.300Z,93072.00
2019-01-24T10:10:38.028Z,93078.43
2019-01-24T10:13:07.768Z,93067.44
2019-01-24T10:15:37.461Z,93066.34
2019-01-24T10:18:07.085Z,93071.70
2019-01-24T10:20:36.879Z,93069.84
2019-01-24T10:23:06.499Z,93059.89
2019-01-24T10:25:42.969Z,93058.28
2019-01-24T10:28:12.658Z,93061.52
2019-01-24T10:30:43.338Z,93061.21
2019-01-24T10:33:13.032Z,93059.09
2019-01-24T10:35:42.822Z,93052.66
2019-01-24T10:38:12.460Z,93052.14
2019-01-24T10:40:42.651Z,93052.42
2019-01-24T10:43:12.283Z,93044.05
2019-01-24T10:45:41.967Z,93048.09
2019-01-24T10:48:11.612Z,93046.47
2019-01-24T10:50:41.288Z,93045.43
2019-01-24T10:53:11.008Z,93045.67
2019-01-24T10:55:40.707Z,93047.28
2019-01-24T10:58:10.427Z,93052.39
2019-01-24T11:00:41.386Z,93050.46
2019-01-24T11:03:16.085Z,93044.59
2019-01-24T11:05:45.929Z,93027.39
2019-01-24T11:08:15.839Z,93029.52
2019-01-24T11:10:45.533Z,93044.77
2019-01-24T11:13:15.267Z,93046.67
2019-01-24T11:15:44.871Z,93048.28
2019-01-24T11:20:43.046Z,93050.40
2019-01-24T11:23:12.760Z,93059.28
2019-01-24T11:25:42.411Z,93056.59
2019-01-24T11:28:12.079Z,93058.75
2019-01-24T11:30:41.700Z,93062.78
2019-01-24T11:33:11.402Z,93063.33
2019-01-24T11:35:41.105Z,93063.60
2019-01-24T11:38:10.891Z,93066.80
2019-01-24T11:40:40.692Z,93062.27
2019-01-24T11:43:10.269Z,93075.92
2019-01-24T11:45:41.979Z,93081.05
2019-01-24T11:48:11.807Z,93083.45
2019-01-24T11:50:41.690Z,93087.75
2019-01-24T11:53:11.439Z,93078.06
2019-01-24T11:55:41.067Z,93078.08
2019-01-24T11:58:10.860Z,93080.20
2019-01-24T12:00:45.788Z,93092.02
2019-01-24T12:03:15.749Z,93089.89
2019-01-24T12:05:45.499Z,93096.56
2019-01-24T12:08:15.244Z,93095.43
2019-01-24T12:10:44.894Z,93103.50
2019-01-24T12:13:14.549Z,93104.31
2019-01-24T12:15:44.268Z,93102.97
2019-01-24T12:18:13.970Z,93098.97
2019-01-24T12:20:43.695Z,93101.67
2019-01-24T12:23:13.406Z,93095.48
2019-01-24T12:25:43.040Z,93100.81
2019-01-24T12:28:12.748Z,93103.73
2019-01-24T12:30:42.451Z,93109.65
2019-01-24T12:33:12.135Z,93111.52
2019-01-24T12:35:41.845Z,93105.30
2019-01-24T12:38:11.565Z,93109.06
2019-01-24T12:40:41.277Z,93113.11
2019-01-24T12:43:10.908Z,93114.72
2019-01-24T12:45:40.594Z,93113.92
2019-01-24T12:48:10.370Z,93118.47
2019-01-24T12:50:40.066Z,93120.59
2019-01-24T12:53:09.654Z,93121.42
2019-01-24T12:55:39.337Z,93126.53
2019-01-24T12:58:08.955Z,93121.97
2019-01-24T13:00:39.733Z,93119.00
2019-01-24T13:03:09.496Z,93120.84
2019-01-24T13:05:39.141Z,93114.70
2019-01-24T13:08:08.988Z,93117.66
2019-01-24T13:10:38.645Z,93115.98
2019-01-24T13:13:08.326Z,93124.30
2019-01-24T13:15:38.153Z,93129.97
2019-01-24T13:18:07.854Z,93135.59
2019-01-24T13:20:37.571Z,93141.52
2019-01-24T13:23:07.111Z,93139.11
2019-01-24T13:25:36.782Z,93149.57
2019-01-24T13:28:06.966Z,93154.95
2019-01-24T13:30:36.617Z,93164.41
2019-01-24T13:33:07.501Z,93170.83
2019-01-24T13:35:37.681Z,93184.84
2019-01-24T13:38:07.516Z,93187.84
2019-01-24T13:40:37.187Z,93188.83
2019-01-24T13:43:07.380Z,93184.26
2019-01-24T13:45:40.482Z,93197.41
2019-01-24T13:48:10.026Z,93199.00
2019-01-24T13:50:39.657Z,93202.47
2019-01-24T13:53:09.743Z,93203.27
2019-01-24T13:55:39.664Z,93211.33
2019-01-24T13:58:09.390Z,93216.19
2019-01-24T14:00:40.473Z,93212.67
2019-01-24T14:03:19.644Z,93221.01
2019-01-24T14:05:49.477Z,93225.30
2019-01-24T14:08:19.169Z,93224.23
2019-01-24T14:10:48.890Z,93229.32
2019-01-24T14:13:18.589Z,93229.09
2019-01-24T14:15:48.311Z,93227.78
2019-01-24T14:18:17.924Z,93235.03
2019-01-24T14:20:47.628Z,93243.33
2019-01-24T14:23:17.357Z,93245.22
2019-01-24T14:25:47.052Z,93245.50
2019-01-24T14:28:16.772Z,93241.48
2019-01-24T14:30:46.473Z,93256.22
2019-01-24T14:33:16.176Z,93254.34
2019-01-24T14:35:46.341Z,93248.45
2019-01-24T14:38:16.012Z,93264.78
2019-01-24T14:40:45.724Z,93254.06
2019-01-24T14:43:15.341Z,93251.66
2019-01-24T14:45:45.051Z,93243.61
2019-01-24T14:48:14.757Z,93240.65
2019-01-24T14:53:12.875Z,93257.02
2019-01-24T14:55:42.554Z,93262.64
2019-01-24T14:58:12.277Z,93264.54
2019-01-24T15:01:03.890Z,93265.88
2019-01-24T15:03:33.522Z,93272.59
2019-01-24T15:06:03.426Z,93267.78
2019-01-24T15:08:33.163Z,93273.13
2019-01-24T15:11:02.842Z,93280.11
2019-01-24T15:13:32.677Z,93279.55
2019-01-24T15:16:02.489Z,93281.99
2019-01-24T15:18:32.275Z,93289.24
2019-01-24T15:21:02.022Z,93287.66
2019-01-24T15:23:31.627Z,93292.48
2019-01-24T15:26:01.316Z,93293.28
2019-01-24T15:28:30.978Z,93292.17
2019-01-24T15:31:00.684Z,93298.38
2019-01-24T15:33:30.368Z,93320.09
2019-01-24T15:36:00.083Z,93328.69
2019-01-24T15:38:29.759Z,93337.83
2019-01-24T15:40:59.427Z,93341.05
2019-01-24T15:43:29.088Z,93347.23
2019-01-24T15:45:58.517Z,93348.81
2019-01-24T15:48:28.089Z,93351.74
2019-01-24T15:50:57.797Z,93356.31
2019-01-24T15:53:27.460Z,93360.63
2019-01-24T15:55:57.121Z,93368.39
2019-01-24T15:58:26.841Z,93365.45
2019-01-24T16:00:56.554Z,93367.05
2019-01-24T16:03:26.509Z,93371.62
2019-01-24T16:05:56.177Z,93382.35
2019-01-24T16:08:25.880Z,93388.80
2019-01-24T16:10:55.622Z,93397.91
2019-01-24T16:13:25.401Z,93394.13
2019-01-24T16:15:55.257Z,93397.64
2019-01-24T16:18:24.939Z,93393.36
2019-01-24T16:20:54.743Z,93404.89
2019-01-24T16:23:24.446Z,93411.88
2019-01-24T16:25:54.085Z,93416.96
2019-01-24T16:28:24.897Z,93425.55
2019-01-24T16:30:54.715Z,93422.31
2019-01-24T16:33:24.423Z,93432.80
2019-01-24T16:35:54.206Z,93439.52
2019-01-24T16:38:24.026Z,93440.06
2019-01-24T16:40:53.758Z,93445.11
2019-01-24T16:43:23.477Z,93449.14
2019-01-24T16:45:53.179Z,93459.39
2019-01-24T16:48:22.827Z,93457.73
2019-01-24T16:50:52.622Z,93463.67
2019-01-24T16:53:22.225Z,93459.07
2019-01-24T16:55:51.930Z,93461.78
2019-01-24T16:58:21.843Z,93467.41
2019-01-24T17:01:07.954Z,93473.28
2019-01-24T17:03:37.647Z,93473.86
2019-01-24T17:06:07.407Z,93473.32
2019-01-24T17:08:37.067Z,93478.14
2019-01-24T17:11:06.702Z,93482.70
2019-01-24T17:13:36.482Z,93481.63
2019-01-24T17:16:06.258Z,93491.05
2019-01-24T17:18:36.014Z,93491.84
2019-01-24T17:21:05.763Z,93499.61
2019-01-24T17:23:35.446Z,93509.03
2019-01-24T17:26:06.013Z,93501.23
2019-01-24T17:28:35.685Z,93510.86
2019-01-24T17:31:05.504Z,93496.09
2019-01-24T17:33:35.297Z,93493.19
2019-01-24T17:36:05.049Z,93491.59
2019-01-24T17:38:34.803Z,93499.89
2019-01-24T17:41:04.371Z,93503.92
2019-01-24T17:43:34.064Z,93513.05
2019-01-24T17:46:03.863Z,93518.42
2019-01-24T17:48:33.484Z,93514.11
2019-01-24T17:51:03.192Z,93520.56
2019-01-24T17:53:32.930Z,93531.52
2019-01-24T17:56:02.614Z,93536.91
2019-01-24T17:58:32.375Z,93537.97
2019-01-24T18:01:02.163Z,93539.61
2019-01-24T18:03:31.934Z,93550.08
2019-01-24T18:06:01.658Z,93552.73
2019-01-24T18:08:31.639Z,93554.08
2019-01-24T18:11:01.383Z,93564.84
2019-01-24T18:13:31.000Z,93566.41
2019-01-24T18:16:00.715Z,93559.44
2019-01-24T18:18:30.442Z,93570.20
2019-01-24T18:21:00.127Z,93575.03
2019-01-24T18:23:29.770Z,93570.71
2019-01-24T18:25:59.437Z,93574.73
2019-01-24T18:28:29.174Z,93580.10
2019-01-24T18:30:58.863Z,93581.70
2019-01-24T18:33:28.583Z,93590.33
2019-01-24T18:35:58.220Z,93587.87
2019-01-24T18:38:27.889Z,93588.16
2019-01-24T18:40:57.811Z,93587.60
2019-01-24T18:43:28.628Z,93602.11
2019-01-24T18:46:00.567Z,93602.36
2019-01-24T18:48:30.418Z,93596.74
2019-01-24T18:50:59.928Z,93606.67
2019-01-24T18:53:29.528Z,93609.35
2019-01-24T18:55:59.141Z,93603.71
2019-01-24T18:58:28.969Z,93605.84
2019-01-24T19:00:58.604Z,93603.44
2019-01-24T19:03:28.197Z,93597.54
2019-01-24T19:05:57.839Z,93601.56
2019-01-24T19:08:27.598Z,93602.89
2019-01-24T19:10:57.427Z,93602.91
2019-01-24T19:13:27.034Z,93602.91
2019-01-24T19:15:56.734Z,93596.75
2019-01-24T19:18:26.360Z,93605.86
2019-01-24T19:20:56.188Z,93616.05
2019-01-24T19:23:25.887Z,93617.93
2019-01-24T19:25:55.533Z,93609.34
2019-01-24T19:28:25.444Z,93610.95
2019-01-24T19:30:55.201Z,93612.58
2019-01-24T19:33:24.658Z,93609.89
2019-01-24T19:36:00.198Z,93614.95
2019-01-24T19:38:25.641Z,93608.80
2019-01-24T19:40:55.981Z,93608.27
2019-01-24T19:43:25.800Z,93615.77
2019-01-24T19:45:55.304Z,93624.10
2019-01-24T19:48:25.061Z,93626.23
2019-01-24T19:50:54.659Z,93639.92
2019-01-24T19:53:24.371Z,93632.16
2019-01-24T19:55:53.893Z,93627.33
2019-01-24T19:58:23.547Z,93627.58
2019-01-24T20:00:53.062Z,93633.47
2019-01-24T20:03:23.850Z,93640.19
2019-01-24T20:05:54.054Z,93639.41
2019-01-24T20:08:23.497Z,93642.88
2019-01-24T20:10:52.987Z,93642.88
2019-01-24T20:13:24.374Z,93640.20
2019-01-24T20:15:54.272Z,93643.94
2019-01-24T20:18:24.183Z,93649.84
2019-01-24T20:20:53.642Z,93659.22
2019-01-24T20:23:23.375Z,93668.91
2019-01-24T20:25:53.044Z,93660.05
2019-01-24T20:28:22.661Z,93667.28
2019-01-24T20:30:52.269Z,93664.88
2019-01-24T20:33:21.885Z,93675.32
2019-01-24T20:35:54.547Z,93668.64
2019-01-24T20:38:24.138Z,93676.95
2019-01-24T20:40:53.762Z,93682.58
2019-01-24T20:43:23.412Z,93683.92
2019-01-24T20:45:53.001Z,93684.45
2019-01-24T20:48:22.708Z,93684.73
2019-01-24T20:50:52.400Z,93689.56
2019-01-24T20:53:22.039Z,93697.08
2019-01-24T20:55:51.711Z,93702.70
2019-01-24T20:58:21.499Z,93706.73
2019-01-24T21:00:51.354Z,93708.08
2019-01-24T21:03:21.132Z,93722.30
2019-01-24T21:05:50.927Z,93726.32
2019-01-24T21:08:20.777Z,93732.48
2019-01-24T21:10:50.538Z,93738.94
2019-01-24T21:13:20.248Z,93734.91
2019-01-24T21:15:50.119Z,93739.47
2019-01-24T21:18:20.085Z,93735.72
2019-01-24T21:20:49.758Z,93745.63
2019-01-24T21:23:19.480Z,93745.91
2019-01-24T21:30:46.679Z,93755.02
2019-01-24T21:33:16.354Z,93757.45
2019-01-24T21:35:46.008Z,93765.51
2019-01-24T21:38:15.670Z,93768.17
2019-01-24T21:40:45.364Z,93765.75
2019-01-24T21:43:15.099Z,93766.55
2019-01-24T21:45:44.836Z,93773.24
2019-01-24T21:48:14.632Z,93776.23
2019-01-24T21:50:44.325Z,93787.76
2019-01-24T21:53:14.046Z,93791.27
2019-01-24T21:55:43.805Z,93796.88
2019-01-24T21:58:13.587Z,93791.50
2019-01-24T22:00:43.242Z,93793.66
2019-01-24T22:03:12.909Z,93801.98
2019-01-24T22:05:42.758Z,93804.41
2019-01-24T22:08:12.333Z,93804.67
2019-01-24T22:10:42.026Z,93798.50
2019-01-24T22:13:11.641Z,93787.22
2019-01-24T22:15:41.515Z,93790.67
2019-01-24T22:18:11.171Z,93791.27
2019-01-24T22:20:40.758Z,93797.69
2019-01-24T22:23:10.579Z,93791.80
2019-01-24T22:25:40.201Z,93790.70
2019-01-24T22:28:09.909Z,93786.15
2019-01-24T22:30:48.002Z,93784.00
2019-01-24T22:33:17.758Z,93787.23
2019-01-24T22:35:47.421Z,93784.01
2019-01-24T22:38:17.129Z,93780.78
2019-01-24T22:40:46.845Z,93770.61
2019-01-24T22:43:16.660Z,93774.36
2019-01-24T22:45:46.292Z,93760.14
2019-01-24T22:48:15.971Z,93756.91
2019-01-24T22:50:45.611Z,93761.74
2019-01-24T22:53:15.328Z,93757.72
2019-01-24T22:55:44.935Z,93759.61
2019-01-24T22:58:14.623Z,93756.12
2019-01-24T23:01:37.741Z,93762.00
2019-01-24T23:04:13.379Z,93762.28
2019-01-24T23:06:43.029Z,93757.16
2019-01-24T23:09:12.977Z,93766.00
2019-01-24T23:11:42.973Z,93774.90
2019-01-24T23:14:12.595Z,93779.45
2019-01-24T23:16:42.346Z,93787.47
2019-01-24T23:19:11.999Z,93779.72
2019-01-24T23:21:41.718Z,93756.91
2019-01-24T23:24:11.353Z,93772.19
2019-01-24T23:26:40.938Z,93793.66
2019-01-24T23:29:10.643Z,93792.00
2019-01-24T23:31:40.282Z,93803.58
2019-01-24T23:34:10.070Z,93827.19
2019-01-24T23:36:39.813Z,93807.33
2019-01-24T23:39:10.859Z,93796.35
2019-01-24T23:41:40.537Z,93787.76
2019-01-24T23:44:10.180Z,93778.64
2019-01-24T23:46:39.840Z,93778.64
2019-01-24T23:49:09.481Z,93798.23
2019-01-24T23:51:39.167Z,93833.38
2019-01-24T23:54:08.842Z,93823.45
2019-01-24T23:56:38.595Z,93833.92
2019-01-24T23:59:08.296Z,93824.77
